createdAt,value
2018-04-25T00:00:59.409Z,15.60
2018-04-25T00:03:25.808Z,15.97
2018-04-25T00:05:52.235Z,15.00
2018-04-25T00:08:19.486Z,16.00
2018-04-25T00:10:46.994Z,20.73
2018-04-25T00:13:13.789Z,21.60
2018-04-25T00:15:41.956Z,12.63
2018-04-25T00:18:09.231Z,14.37
2018-04-25T00:20:35.928Z,24.17
2018-04-25T00:23:02.417Z,16.23
2018-04-25T00:25:29.560Z,19.83
2018-04-25T00:27:56.046Z,14.23
2018-04-25T00:30:22.434Z,17.87
2018-04-25T00:32:49.015Z,17.93
2018-04-25T00:35:15.425Z,21.17
2018-04-25T00:37:41.974Z,23.17
2018-04-25T00:40:08.649Z,27.10
2018-04-25T00:42:35.820Z,27.33
2018-04-25T00:45:02.255Z,21.03
2018-04-25T00:47:28.665Z,31.33
2018-04-25T00:49:55.061Z,22.63
2018-04-25T00:52:22.655Z,21.53
2018-04-25T00:54:49.849Z,33.07
2018-04-25T00:57:17.165Z,31.33
2018-04-25T00:59:44.117Z,19.07
2018-04-25T01:02:10.798Z,31.73
2018-04-25T01:04:37.278Z,18.20
2018-04-25T01:07:03.818Z,20.50
2018-04-25T01:09:31.061Z,22.30
2018-04-25T01:11:58.230Z,29.17
2018-04-25T01:14:24.559Z,26.77
2018-04-25T01:16:51.355Z,41.20
2018-04-25T01:19:17.839Z,24.93
2018-04-25T01:21:55.241Z,31.67
2018-04-25T01:24:28.801Z,21.13
2018-04-25T01:26:56.581Z,19.50
2018-04-25T01:29:24.412Z,32.17
2018-04-25T01:31:52.495Z,18.83
2018-04-25T01:37:30.897Z,18.30
2018-04-25T01:39:59.130Z,17.60
2018-04-25T01:45:43.032Z,20.77
2018-04-25T01:51:02.904Z,19.53
2018-04-25T01:53:41.486Z,24.67
2018-04-25T01:56:20.305Z,14.27
2018-04-25T01:58:54.424Z,17.10
2018-04-25T02:01:21.739Z,20.67
2018-04-25T02:03:55.546Z,27.17
2018-04-25T02:06:22.734Z,24.97
2018-04-25T02:08:49.547Z,23.07
2018-04-25T02:11:16.747Z,20.70
2018-04-25T02:13:43.602Z,23.73
2018-04-25T02:16:10.938Z,25.20
2018-04-25T02:18:38.175Z,30.03
2018-04-25T02:21:04.682Z,18.97
2018-04-25T02:23:31.797Z,21.17
2018-04-25T02:25:58.578Z,21.00
2018-04-25T02:28:25.807Z,17.83
2018-04-25T02:30:52.707Z,22.67
2018-04-25T02:33:19.849Z,21.33
2018-04-25T02:35:47.758Z,18.47
2018-04-25T02:38:14.913Z,16.23
2018-04-25T02:40:48.245Z,15.03
2018-04-25T02:43:14.672Z,27.43
2018-04-25T02:45:43.588Z,25.73
2018-04-25T02:48:10.430Z,17.77
2018-04-25T02:50:36.910Z,19.93
2018-04-25T02:53:03.647Z,31.50
2018-04-25T02:55:30.120Z,15.30
2018-04-25T02:57:56.613Z,15.40
2018-04-25T03:00:23.149Z,24.77
2018-04-25T03:02:50.543Z,15.43
2018-04-25T03:05:17.821Z,19.00
2018-04-25T03:07:44.563Z,23.50
2018-04-25T03:10:11.748Z,21.53
2018-04-25T03:12:38.287Z,23.70
2018-04-25T03:15:05.636Z,27.00
2018-04-25T03:17:33.577Z,28.10
2018-04-25T03:20:00.346Z,22.53
2018-04-25T03:22:27.471Z,23.00
2018-04-25T03:24:54.197Z,26.70
2018-04-25T03:27:20.951Z,21.60
2018-04-25T03:29:47.308Z,22.93
2018-04-25T03:32:14.878Z,30.40
2018-04-25T03:34:41.289Z,31.43
2018-04-25T03:37:07.753Z,30.53
2018-04-25T03:39:34.175Z,26.70
2018-04-25T03:42:01.361Z,31.17
2018-04-25T03:44:28.556Z,34.20
2018-04-25T03:46:55.722Z,38.43
2018-04-25T03:49:22.501Z,46.33
2018-04-25T03:51:48.922Z,31.40
2018-04-25T03:54:15.359Z,40.30
2018-04-25T03:56:41.909Z,34.97
2018-04-25T03:59:08.377Z,43.03
2018-04-25T04:01:35.537Z,45.73
2018-04-25T04:04:02.677Z,52.13
2018-04-25T04:06:29.794Z,51.07
2018-04-25T04:08:57.745Z,48.50
2018-04-25T04:11:24.538Z,56.90
2018-04-25T04:13:52.030Z,66.27
2018-04-25T04:19:03.557Z,69.67
2018-04-25T04:21:29.974Z,67.40
2018-04-25T04:23:57.202Z,76.30
2018-04-25T04:26:24.358Z,73.37
2018-04-25T04:28:50.786Z,90.60
2018-04-25T04:31:18.352Z,83.47
2018-04-25T04:33:45.568Z,90.20
2018-04-25T04:36:12.003Z,89.80
2018-04-25T04:38:38.556Z,96.80
2018-04-25T04:41:04.981Z,111.43
2018-04-25T04:43:31.405Z,91.27
2018-04-25T04:45:58.531Z,103.70
2018-04-25T04:48:25.662Z,108.97
2018-04-25T04:50:52.480Z,111.90
2018-04-25T04:53:18.847Z,111.13
2018-04-25T04:55:48.929Z,107.83
2018-04-25T04:58:17.152Z,103.20
2018-04-25T05:00:44.666Z,102.83
2018-04-25T05:03:11.930Z,118.60
2018-04-25T05:05:39.200Z,117.93
2018-04-25T05:08:06.619Z,96.83
2018-04-25T05:10:33.498Z,116.13
2018-04-25T05:13:00.410Z,113.00
2018-04-25T05:15:26.857Z,101.60
2018-04-25T05:17:54.988Z,110.33
2018-04-25T05:20:21.393Z,129.37
2018-04-25T05:22:48.700Z,111.30
2018-04-25T05:25:16.960Z,104.57
2018-04-25T05:27:44.121Z,106.33
2018-04-25T05:30:11.228Z,112.60
2018-04-25T05:32:39.446Z,111.83
2018-04-25T05:35:07.564Z,126.70
2018-04-25T05:37:37.152Z,110.27
2018-04-25T05:40:06.543Z,130.03
2018-04-25T05:42:35.017Z,129.20
2018-04-25T05:45:03.479Z,122.77
2018-04-25T05:47:31.756Z,117.60
2018-04-25T05:49:58.723Z,112.93
2018-04-25T05:52:26.229Z,102.50
2018-04-25T05:54:55.039Z,104.90
2018-04-25T05:57:22.287Z,116.50
2018-04-25T05:59:48.829Z,104.63
2018-04-25T06:02:16.458Z,117.40
2018-04-25T06:04:44.283Z,116.17
2018-04-25T06:07:13.527Z,94.90
2018-04-25T06:09:41.297Z,94.10
2018-04-25T06:12:09.676Z,104.03
2018-04-25T06:14:37.171Z,108.93
2018-04-25T06:17:05.708Z,95.07
2018-04-25T06:19:32.476Z,114.67
2018-04-25T06:22:00.568Z,91.70
2018-04-25T06:24:28.831Z,76.83
2018-04-25T06:26:57.488Z,86.17
2018-04-25T06:29:24.465Z,88.43
2018-04-25T06:31:51.988Z,94.20
2018-04-25T06:37:16.587Z,95.57
2018-04-25T06:39:44.423Z,76.80
2018-04-25T06:42:13.817Z,89.47
2018-04-25T06:44:43.107Z,79.93
2018-04-25T06:47:11.368Z,78.83
2018-04-25T06:49:39.834Z,89.10
2018-04-25T06:52:08.547Z,85.23
2018-04-25T06:54:36.776Z,68.60
2018-04-25T06:57:07.158Z,81.80
2018-04-25T06:59:36.747Z,61.20
2018-04-25T07:02:17.359Z,67.27
2018-04-25T07:07:47.585Z,67.50
2018-04-25T07:10:16.116Z,69.40
2018-04-25T07:12:42.708Z,63.70
2018-04-25T07:15:10.738Z,74.27
2018-04-25T07:17:37.304Z,65.47
2018-04-25T07:20:04.463Z,57.97
2018-04-25T07:22:32.794Z,56.03
2018-04-25T07:25:01.003Z,65.23
2018-04-25T07:27:28.872Z,28.97
2018-04-25T07:29:56.273Z,45.60
2018-04-25T07:32:23.730Z,36.43
2018-04-25T07:34:51.978Z,46.90
2018-04-25T07:37:20.161Z,41.30
2018-04-25T07:39:47.148Z,42.70
2018-04-25T07:42:16.718Z,42.30
2018-04-25T07:44:45.122Z,41.93
2018-04-25T07:47:13.307Z,47.03
2018-04-25T07:49:40.590Z,48.30
2018-04-25T07:52:08.608Z,52.03
2018-04-25T07:54:35.467Z,45.27
2018-04-25T07:57:02.738Z,34.90
2018-04-25T07:59:29.314Z,47.17
2018-04-25T08:01:56.608Z,42.73
2018-04-25T08:04:23.974Z,42.20
2018-04-25T08:06:51.519Z,46.13
2018-04-25T08:09:19.717Z,50.40
2018-04-25T08:11:58.898Z,53.43
2018-04-25T08:14:37.474Z,60.13
2018-04-25T08:17:12.842Z,69.73
2018-04-25T08:19:52.585Z,71.27
2018-04-25T08:22:20.432Z,68.03
2018-04-25T08:24:48.032Z,64.87
2018-04-25T08:27:17.675Z,60.63
2018-04-25T08:29:46.662Z,75.17
2018-04-25T08:32:19.454Z,69.47
2018-04-25T08:34:53.469Z,57.33
2018-04-25T08:37:24.561Z,62.30
2018-04-25T08:39:56.059Z,61.03
2018-04-25T08:42:23.765Z,54.53
2018-04-25T08:44:50.584Z,57.30
2018-04-25T08:47:20.141Z,58.77
2018-04-25T08:52:48.918Z,39.60
2018-04-25T08:55:20.329Z,38.33
2018-04-25T08:57:50.732Z,33.93
2018-04-25T09:00:18.824Z,29.40
2018-04-25T09:02:45.909Z,21.73
2018-04-25T09:05:15.848Z,29.23
2018-04-25T09:07:47.818Z,23.43
2018-04-25T09:10:14.644Z,29.77
2018-04-25T09:12:42.398Z,25.90
2018-04-25T09:15:09.231Z,21.80
2018-04-25T09:17:36.648Z,29.90
2018-04-25T09:20:05.011Z,26.87
2018-04-25T09:22:31.632Z,16.03
2018-04-25T09:25:00.300Z,24.33
2018-04-25T09:27:27.161Z,25.43
2018-04-25T09:29:54.990Z,24.97
2018-04-25T09:32:21.531Z,19.57
2018-04-25T09:34:48.050Z,14.40
2018-04-25T09:37:15.083Z,18.37
2018-04-25T09:39:41.929Z,13.50
2018-04-25T09:42:08.566Z,18.00
2018-04-25T09:44:38.611Z,10.03
2018-04-25T09:47:05.791Z,8.83
2018-04-25T09:49:33.265Z,9.17
2018-04-25T09:51:59.781Z,8.90
2018-04-25T09:54:27.833Z,4.87
2018-04-25T09:56:55.930Z,3.70
2018-04-25T09:59:24.079Z,3.93
2018-04-25T10:01:58.388Z,5.30
2018-04-25T10:04:25.133Z,3.20
2018-04-25T10:06:52.122Z,4.73
2018-04-25T10:09:20.491Z,3.27
2018-04-25T10:11:47.368Z,6.90
2018-04-25T10:14:14.551Z,2.63
2018-04-25T10:16:41.842Z,3.47
2018-04-25T10:19:10.926Z,3.63
2018-04-25T10:21:39.896Z,6.50
2018-04-25T10:24:07.116Z,4.07
2018-04-25T10:26:34.379Z,5.27
2018-04-25T10:29:01.909Z,4.60
2018-04-25T10:31:28.621Z,4.20
2018-04-25T10:33:55.612Z,3.47
2018-04-25T10:36:26.946Z,3.70
2018-04-25T10:38:55.771Z,6.10
2018-04-25T10:41:22.905Z,2.90
2018-04-25T10:43:51.280Z,3.87
2018-04-25T10:46:18.715Z,6.23
2018-04-25T10:48:45.457Z,4.20
2018-04-25T10:51:11.914Z,6.67
2018-04-25T10:53:40.246Z,4.20
2018-04-25T10:56:08.607Z,7.83
2018-04-25T10:58:36.298Z,4.53
2018-04-25T11:01:04.444Z,5.57
2018-04-25T11:03:31.905Z,9.00
2018-04-25T11:06:04.040Z,5.50
2018-04-25T11:08:31.534Z,4.27
2018-04-25T11:10:59.638Z,6.17
2018-04-25T11:13:26.921Z,6.93
2018-04-25T11:15:54.098Z,8.00
2018-04-25T11:18:22.213Z,10.40
2018-04-25T11:20:49.050Z,10.20
2018-04-25T11:23:17.231Z,3.63
2018-04-25T11:25:44.642Z,8.60
2018-04-25T11:28:12.854Z,6.53
2018-04-25T11:30:41.093Z,8.53
2018-04-25T11:33:09.268Z,5.60
2018-04-25T11:35:37.379Z,7.60
2018-04-25T11:38:03.825Z,7.57
2018-04-25T11:40:30.663Z,5.50
2018-04-25T11:45:38.369Z,8.90
2018-04-25T11:48:07.775Z,6.10
2018-04-25T11:50:35.916Z,5.27
2018-04-25T11:53:05.141Z,7.70
2018-04-25T11:55:31.917Z,5.90
2018-04-25T11:57:59.933Z,7.70
2018-04-25T12:00:27.525Z,5.23
2018-04-25T12:02:54.042Z,10.23
2018-04-25T12:05:21.517Z,12.40
2018-04-25T12:07:50.236Z,4.13
2018-04-25T12:10:16.816Z,10.43
2018-04-25T12:12:45.110Z,9.47
2018-04-25T12:15:13.793Z,11.77
2018-04-25T12:17:42.358Z,6.40
2018-04-25T12:20:14.826Z,8.67
2018-04-25T12:22:43.619Z,10.23
2018-04-25T12:25:12.215Z,6.23
2018-04-25T12:27:42.561Z,7.37
2018-04-25T12:30:14.988Z,9.33
2018-04-25T12:32:44.501Z,7.93
2018-04-25T12:35:15.916Z,5.33
2018-04-25T12:37:43.083Z,3.70
2018-04-25T12:40:13.146Z,5.90
2018-04-25T12:42:42.325Z,8.27
2018-04-25T12:45:10.624Z,12.57
2018-04-25T12:47:37.885Z,7.13
2018-04-25T12:52:41.367Z,12.37
2018-04-25T12:55:12.654Z,6.13
2018-04-25T12:57:41.016Z,15.60
2018-04-25T13:00:08.000Z,9.00
2018-04-25T13:02:35.921Z,15.00
2018-04-25T13:05:05.080Z,15.23
2018-04-25T13:07:40.308Z,14.83
2018-04-25T13:10:10.884Z,15.73
2018-04-25T13:12:40.213Z,13.63
2018-04-25T13:15:08.295Z,10.87
2018-04-25T13:17:40.021Z,5.40
2018-04-25T13:20:10.388Z,8.40
2018-04-25T13:22:38.808Z,8.33
2018-04-25T13:25:06.396Z,7.87
2018-04-25T13:27:42.260Z,5.20
2018-04-25T13:30:09.854Z,6.87
2018-04-25T13:32:41.093Z,5.17
2018-04-25T13:35:12.405Z,5.80
2018-04-25T13:40:15.718Z,2.00
2018-04-25T13:42:43.907Z,2.90
2018-04-25T13:45:11.672Z,4.10
2018-04-25T13:47:38.088Z,4.93
2018-04-25T13:50:06.406Z,4.00
2018-04-25T13:52:34.685Z,2.53
2018-04-25T13:55:02.737Z,4.30
2018-04-25T13:57:30.040Z,1.97
2018-04-25T13:59:58.151Z,4.27
2018-04-25T14:02:24.882Z,3.63
2018-04-25T14:04:53.058Z,1.60
2018-04-25T14:07:20.619Z,3.53
2018-04-25T14:09:47.517Z,1.20
2018-04-25T14:12:16.645Z,1.40
2018-04-25T14:14:43.113Z,1.73
2018-04-25T14:17:12.523Z,5.30
2018-04-25T14:19:44.179Z,3.10
2018-04-25T14:22:15.739Z,3.93
2018-04-25T14:24:45.872Z,1.97
2018-04-25T14:27:20.684Z,1.70
2018-04-25T14:29:47.103Z,1.93
2018-04-25T14:32:16.389Z,3.03
2018-04-25T14:34:49.893Z,2.70
2018-04-25T14:37:17.439Z,5.93
2018-04-25T14:39:55.310Z,1.80
2018-04-25T14:42:22.599Z,7.47
2018-04-25T14:44:50.739Z,2.23
2018-04-25T14:47:26.462Z,3.40
2018-04-25T14:49:55.189Z,1.60
2018-04-25T14:52:22.046Z,1.90
2018-04-25T14:54:50.322Z,2.10
2018-04-25T14:57:16.695Z,1.63
2018-04-25T14:59:44.092Z,2.00
2018-04-25T15:02:12.072Z,1.70
2018-04-25T15:04:40.347Z,2.90
2018-04-25T15:07:08.499Z,1.40
2018-04-25T15:09:35.835Z,1.73
2018-04-25T15:14:40.596Z,7.13
2018-04-25T15:17:07.112Z,2.10
2018-04-25T15:19:36.128Z,1.73
2018-04-25T15:22:03.882Z,3.20
2018-04-25T15:24:31.260Z,2.13
2018-04-25T15:26:57.809Z,2.23
2018-04-25T15:29:24.769Z,3.50
2018-04-25T15:31:52.008Z,3.63
2018-04-25T15:34:19.189Z,5.93
2018-04-25T15:36:47.325Z,2.33
2018-04-25T15:39:15.428Z,4.10
2018-04-25T15:41:43.548Z,2.27
2018-04-25T15:44:11.215Z,2.10
2018-04-25T15:46:40.141Z,1.77
2018-04-25T15:49:07.431Z,1.50
2018-04-25T15:51:34.158Z,1.37
2018-04-25T15:54:02.009Z,1.63
2018-04-25T15:56:29.833Z,2.17
2018-04-25T15:58:57.265Z,1.73
2018-04-25T16:01:24.287Z,1.47
2018-04-25T16:03:58.012Z,2.40
2018-04-25T16:06:25.389Z,2.10
2018-04-25T16:08:54.877Z,3.00
2018-04-25T16:11:22.636Z,2.73
2018-04-25T16:13:49.056Z,1.30
2018-04-25T16:16:17.996Z,3.20
2018-04-25T16:18:50.563Z,2.03
2018-04-25T16:21:21.793Z,2.00
2018-04-25T16:23:51.680Z,1.50
2018-04-25T16:26:19.933Z,2.33
2018-04-25T16:28:46.396Z,2.20
2018-04-25T16:31:12.905Z,3.43
2018-04-25T16:33:39.373Z,1.63
2018-04-25T16:36:07.014Z,2.47
2018-04-25T16:38:34.837Z,2.53
2018-04-25T16:41:08.800Z,3.77
2018-04-25T16:43:37.977Z,3.53
2018-04-25T16:46:04.729Z,2.03
2018-04-25T16:48:33.137Z,2.20
2018-04-25T16:53:38.430Z,2.20
2018-04-25T16:56:07.348Z,2.73
2018-04-25T16:58:34.453Z,1.90
2018-04-25T17:01:02.376Z,3.60
2018-04-25T17:03:30.757Z,4.17
2018-04-25T17:05:59.970Z,3.50
2018-04-25T17:08:26.769Z,7.43
2018-04-25T17:10:57.624Z,3.20
2018-04-25T17:13:27.987Z,2.77
2018-04-25T17:15:56.988Z,5.83
2018-04-25T17:18:25.035Z,2.10
2018-04-25T17:20:51.634Z,2.37
2018-04-25T17:23:19.591Z,3.50
2018-04-25T17:25:48.275Z,2.43
2018-04-25T17:28:16.377Z,3.70
2018-04-25T17:30:44.674Z,2.10
2018-04-25T17:33:13.326Z,7.13
2018-04-25T17:35:41.145Z,6.83
2018-04-25T17:38:08.198Z,3.23
2018-04-25T17:40:35.766Z,5.73
2018-04-25T17:43:07.711Z,2.50
2018-04-25T17:45:39.428Z,3.43
2018-04-25T17:48:07.982Z,3.97
2018-04-25T17:50:38.444Z,3.30
2018-04-25T17:53:07.159Z,2.50
2018-04-25T17:55:34.992Z,5.07
2018-04-25T17:58:01.545Z,4.70
2018-04-25T18:00:31.481Z,2.80
2018-04-25T18:02:58.637Z,8.20
2018-04-25T18:05:25.854Z,4.33
2018-04-25T18:07:54.501Z,3.73
2018-04-25T18:10:20.990Z,6.30
2018-04-25T18:12:47.994Z,2.60
2018-04-25T18:15:16.041Z,5.13
2018-04-25T18:17:42.991Z,4.73
2018-04-25T18:20:10.840Z,11.60
2018-04-25T18:22:38.360Z,2.60
2018-04-25T18:25:04.858Z,3.90
2018-04-25T18:27:31.902Z,5.17
2018-04-25T18:29:59.104Z,5.77
2018-04-25T18:32:26.695Z,2.07
2018-04-25T18:34:54.321Z,4.77
2018-04-25T18:37:21.617Z,8.43
2018-04-25T18:39:51.099Z,4.80
2018-04-25T18:42:18.653Z,6.07
2018-04-25T18:44:46.195Z,1.80
2018-04-25T18:47:13.595Z,8.63
2018-04-25T18:52:17.761Z,7.00
2018-04-25T18:54:44.679Z,5.27
2018-04-25T18:57:12.669Z,4.33
2018-04-25T18:59:40.025Z,6.40
2018-04-25T19:02:07.398Z,8.03
2018-04-25T19:04:33.935Z,4.57
2018-04-25T19:07:00.544Z,4.10
2018-04-25T19:09:41.644Z,4.07
2018-04-25T19:12:08.610Z,8.90
2018-04-25T19:14:39.999Z,4.17
2018-04-25T19:17:07.419Z,11.23
2018-04-25T19:19:35.891Z,5.27
2018-04-25T19:22:04.166Z,3.50
2018-04-25T19:24:31.225Z,7.40
2018-04-25T19:26:59.313Z,5.30
2018-04-25T19:29:26.270Z,5.13
2018-04-25T19:31:52.861Z,5.80
2018-04-25T19:34:21.325Z,9.50
2018-04-25T19:36:49.295Z,4.87
2018-04-25T19:39:16.573Z,8.97
2018-04-25T19:41:45.329Z,4.10
2018-04-25T19:44:19.141Z,7.47
2018-04-25T19:46:47.906Z,9.67
2018-04-25T19:49:16.053Z,13.97
2018-04-25T19:51:44.090Z,5.10
2018-04-25T19:54:18.861Z,5.93
2018-04-25T19:56:50.051Z,6.47
2018-04-25T19:59:19.128Z,7.27
2018-04-25T20:01:47.381Z,5.93
2018-04-25T20:04:15.662Z,10.90
2018-04-25T20:06:43.834Z,4.43
2018-04-25T20:09:15.331Z,5.70
2018-04-25T20:11:42.566Z,4.30
2018-04-25T20:14:09.835Z,5.33
2018-04-25T20:16:38.159Z,5.70
2018-04-25T20:19:06.105Z,4.60
2018-04-25T20:21:33.159Z,7.97
2018-04-25T20:24:00.747Z,6.83
2018-04-25T20:26:28.149Z,5.33
2018-04-25T20:28:55.112Z,9.67
2018-04-25T20:31:25.411Z,10.90
2018-04-25T20:33:54.456Z,5.73
2018-04-25T20:36:22.631Z,7.10
2018-04-25T20:38:51.369Z,6.53
2018-04-25T20:41:19.788Z,11.80
2018-04-25T20:43:49.281Z,5.87
2018-04-25T20:46:16.034Z,9.90
2018-04-25T20:48:43.058Z,8.27
2018-04-25T20:51:09.931Z,6.50
2018-04-25T20:53:36.866Z,8.13
2018-04-25T20:56:03.829Z,4.40
2018-04-25T20:58:32.859Z,6.87
2018-04-25T21:00:59.739Z,8.73
2018-04-25T21:03:28.289Z,8.43
2018-04-25T21:05:55.525Z,6.23
2018-04-25T21:08:25.370Z,7.07
2018-04-25T21:10:52.321Z,6.57
2018-04-25T21:13:18.950Z,6.70
2018-04-25T21:15:47.146Z,12.90
2018-04-25T21:18:13.708Z,6.90
2018-04-25T21:20:41.288Z,8.67
2018-04-25T21:23:07.633Z,15.50
2018-04-25T21:25:35.777Z,10.93
2018-04-25T21:30:38.308Z,8.40
2018-04-25T21:33:06.619Z,8.20
2018-04-25T21:35:34.856Z,6.07
2018-04-25T21:38:04.636Z,10.03
2018-04-25T21:40:39.078Z,7.23
2018-04-25T21:43:07.291Z,9.47
2018-04-25T21:45:40.164Z,12.83
2018-04-25T21:48:13.329Z,7.80
2018-04-25T21:50:41.684Z,3.83
2018-04-25T21:53:09.865Z,5.70
2018-04-25T21:55:40.658Z,6.23
2018-04-25T21:58:07.782Z,4.97
2018-04-25T22:00:35.996Z,3.20
2018-04-25T22:03:04.797Z,6.20
2018-04-25T22:05:31.999Z,7.20
2018-04-25T22:08:00.574Z,4.07
2018-04-25T22:10:34.597Z,3.70
2018-04-25T22:13:01.945Z,6.03
2018-04-25T22:15:28.343Z,3.73
2018-04-25T22:17:55.799Z,10.33
2018-04-25T22:23:04.115Z,7.23
2018-04-25T22:25:33.080Z,7.43
2018-04-25T22:28:01.423Z,5.03
2018-04-25T22:30:29.548Z,7.63
2018-04-25T22:32:57.941Z,13.87
2018-04-25T22:35:25.160Z,6.10
2018-04-25T22:37:51.766Z,3.17
2018-04-25T22:40:20.599Z,9.87
2018-04-25T22:42:48.799Z,5.70
2018-04-25T22:45:17.914Z,5.23
2018-04-25T22:47:45.520Z,8.40
2018-04-25T22:50:14.174Z,5.33
2018-04-25T22:52:40.586Z,2.77
2018-04-25T22:55:11.995Z,8.13
2018-04-25T22:57:39.889Z,3.97
2018-04-25T23:00:07.213Z,7.07
2018-04-25T23:02:34.525Z,4.73
2018-04-25T23:05:02.530Z,6.20
2018-04-25T23:07:31.683Z,4.93
2018-04-25T23:10:00.230Z,6.10
2018-04-25T23:12:26.674Z,6.47
2018-04-25T23:14:55.962Z,4.10
2018-04-25T23:17:22.872Z,9.40
2018-04-25T23:19:50.265Z,10.17
2018-04-25T23:22:17.081Z,8.80
2018-04-25T23:24:45.385Z,7.00
2018-04-25T23:27:13.439Z,6.93
2018-04-25T23:29:40.264Z,5.63
2018-04-25T23:32:06.821Z,4.50
2018-04-25T23:34:35.146Z,5.10
2018-04-25T23:37:02.753Z,7.67
2018-04-25T23:39:30.653Z,4.07
2018-04-25T23:41:57.913Z,5.57
2018-04-25T23:44:24.383Z,7.60
2018-04-25T23:46:50.880Z,8.40
2018-04-25T23:49:17.671Z,11.67
2018-04-25T23:51:44.143Z,7.63
2018-04-25T23:54:11.308Z,7.30
2018-04-25T23:56:38.315Z,10.43
2018-04-25T23:59:05.592Z,10.47
